GQPA/ATR METAR and TAF weather

Enter ICAO airport designator
Station Type Date Time Source
GQPA METAR 2019/10/20 15:00 UTC NOAA

GQPA 201500Z 00000KT CAVOK 36/07 Q1011


Station Type Date Time Source
GQPA Decoded METAR 2019/10/20 15:00 UTC NOAA

Atar, Mauritania (GQPA) 20-31N 013-04W 224M
Oct 20, 2019 - 11:00 AM EDT / 2019.10.20 1500 UTC
Wind: Calm:0
Visibility: greater than 7 mile(s):0
Temperature: 96 F (36 C)
Dew Point: 44 F (7 C)
Relative Humidity: 16%
Pressure (altimeter): 29.85 in. Hg (1011 hPa)
ob: GQPA 201500Z 00000KT CAVOK 36/07 Q1011
cycle: 15

Station Type Date Time Source
GQPA TAF UTC NOAA

Error!

Example: see airport list